createdAt,value
2023-04-29T00:02:16.381Z,100518.03
2023-04-29T00:04:43.120Z,100516.13
2023-04-29T00:07:09.648Z,100513.56
2023-04-29T00:09:37.557Z,100515.16
2023-04-29T00:12:04.036Z,100514.16
2023-04-29T00:14:30.497Z,100507.28
2023-04-29T00:16:57.203Z,100507.50
2023-04-29T00:19:23.775Z,100506.34
2023-04-29T00:21:50.179Z,100512.34
2023-04-29T00:24:16.627Z,100509.81
2023-04-29T00:26:43.040Z,100510.69
2023-04-29T00:29:09.441Z,100515.03
2023-04-29T00:31:37.210Z,100519.69
2023-04-29T00:34:03.875Z,100517.59
2023-04-29T00:36:31.920Z,100522.31
2023-04-29T00:38:59.275Z,100517.50
2023-04-29T00:41:26.129Z,100513.03
2023-04-29T00:43:53.011Z,100506.66
2023-04-29T00:46:19.851Z,100497.94
2023-04-29T00:48:46.321Z,100498.19
2023-04-29T00:51:13.668Z,100497.56
2023-04-29T00:53:41.697Z,100494.00
2023-04-29T00:56:08.696Z,100496.38
2023-04-29T00:58:36.371Z,100493.84
2023-04-29T01:01:06.360Z,100502.88
2023-04-29T01:03:33.065Z,100512.19
2023-04-29T01:06:24.109Z,100514.31
2023-04-29T01:09:27.037Z,100520.63
2023-04-29T01:12:06.701Z,100508.09
2023-04-29T01:14:34.705Z,100509.56
2023-04-29T01:17:10.150Z,100497.75
2023-04-29T01:19:50.558Z,100502.91
2023-04-29T01:22:21.746Z,100503.28
2023-04-29T01:24:49.344Z,100492.06
2023-04-29T01:27:27.706Z,100492.91
2023-04-29T01:30:12.611Z,100498.91
2023-04-29T01:33:03.464Z,100496.09
2023-04-29T01:36:00.716Z,100495.72
2023-04-29T01:38:39.581Z,100500.28
2023-04-29T01:41:10.450Z,100498.53
2023-04-29T01:43:38.949Z,100492.00
2023-04-29T01:46:19.876Z,100490.22
2023-04-29T01:48:47.545Z,100494.16
2023-04-29T01:51:14.436Z,100490.72
2023-04-29T01:53:41.280Z,100490.28
2023-04-29T01:56:08.157Z,100489.69
2023-04-29T01:58:48.941Z,100489.16
2023-04-29T02:01:33.814Z,100488.25
2023-04-29T02:04:00.429Z,100490.03
2023-04-29T02:06:28.015Z,100492.50
2023-04-29T02:08:58.987Z,100488.47
2023-04-29T02:11:25.567Z,100481.25
2023-04-29T02:13:54.779Z,100484.69
2023-04-29T02:16:22.059Z,100483.09
2023-04-29T02:18:58.090Z,100486.94
2023-04-29T02:21:24.533Z,100479.00
2023-04-29T02:23:51.592Z,100476.78
2023-04-29T02:26:18.006Z,100473.75
2023-04-29T02:28:44.517Z,100481.34
2023-04-29T02:31:10.965Z,100478.00
2023-04-29T02:33:37.388Z,100473.53
2023-04-29T02:36:04.188Z,100482.72
2023-04-29T02:38:30.590Z,100481.06
2023-04-29T02:40:57.143Z,100477.16
2023-04-29T02:43:24.045Z,100483.00
2023-04-29T02:45:50.490Z,100480.81
2023-04-29T02:48:17.039Z,100483.59
2023-04-29T02:50:43.499Z,100481.94
2023-04-29T02:53:09.950Z,100484.16
2023-04-29T02:55:36.516Z,100479.44
2023-04-29T02:58:07.748Z,100480.88
2023-04-29T03:00:34.192Z,100472.38
2023-04-29T03:03:01.682Z,100469.50
2023-04-29T03:05:28.386Z,100482.72
2023-04-29T03:07:54.939Z,100478.81
2023-04-29T03:10:21.741Z,100473.47
2023-04-29T03:12:48.165Z,100467.16
2023-04-29T03:15:15.671Z,100470.03
2023-04-29T03:17:42.516Z,100478.00
2023-04-29T03:20:10.619Z,100470.72
2023-04-29T03:22:37.086Z,100475.88
2023-04-29T03:25:04.477Z,100468.47
2023-04-29T03:27:30.919Z,100469.06
2023-04-29T03:29:57.548Z,100467.84
2023-04-29T03:32:24.236Z,100463.97
2023-04-29T03:34:51.122Z,100462.97
2023-04-29T03:37:31.574Z,100466.16
2023-04-29T03:40:12.216Z,100467.78
2023-04-29T03:42:39.773Z,100460.25
2023-04-29T03:45:07.042Z,100467.38
2023-04-29T03:47:33.616Z,100466.41
2023-04-29T03:50:00.675Z,100461.41
2023-04-29T03:52:27.217Z,100468.00
2023-04-29T03:54:59.246Z,100459.94
2023-04-29T03:57:25.699Z,100462.75
2023-04-29T03:59:53.656Z,100471.41
2023-04-29T04:02:21.457Z,100467.44
2023-04-29T04:04:48.218Z,100467.38
2023-04-29T04:07:14.928Z,100471.22
2023-04-29T04:10:07.766Z,100475.50
2023-04-29T04:12:34.612Z,100478.81
2023-04-29T04:15:01.277Z,100474.25
2023-04-29T04:17:27.938Z,100479.56
2023-04-29T04:19:54.585Z,100477.34
2023-04-29T04:22:21.131Z,100478.94
2023-04-29T04:25:04.606Z,100481.31
2023-04-29T04:27:31.210Z,100475.16
2023-04-29T04:30:01.132Z,100477.50
2023-04-29T04:32:31.589Z,100487.91
2023-04-29T04:34:58.532Z,100489.78
2023-04-29T04:37:26.009Z,100482.00
2023-04-29T04:39:55.992Z,100490.53
2023-04-29T04:42:23.350Z,100483.34
2023-04-29T04:44:53.915Z,100487.06
2023-04-29T04:47:30.688Z,100486.97
2023-04-29T04:50:04.380Z,100485.63
2023-04-29T04:52:30.955Z,100484.47
2023-04-29T04:55:15.202Z,100487.19
2023-04-29T04:57:44.551Z,100493.44
2023-04-29T05:00:11.909Z,100497.47
2023-04-29T05:02:38.571Z,100495.25
2023-04-29T05:05:05.728Z,100488.56
2023-04-29T05:07:36.003Z,100494.16
2023-04-29T05:10:06.470Z,100499.78
2023-04-29T05:12:36.258Z,100494.63
2023-04-29T05:15:04.400Z,100502.44
2023-04-29T05:17:31.796Z,100502.22
2023-04-29T05:19:58.881Z,100499.78
2023-04-29T05:22:25.488Z,100506.84
2023-04-29T05:24:52.873Z,100503.56
2023-04-29T05:27:20.016Z,100509.78
2023-04-29T05:29:47.180Z,100507.50
2023-04-29T05:32:13.755Z,100506.97
2023-04-29T05:34:40.406Z,100513.97
2023-04-29T05:37:06.861Z,100511.06
2023-04-29T05:39:41.721Z,100517.59
2023-04-29T05:42:13.419Z,100509.78
2023-04-29T05:44:47.095Z,100513.03
2023-04-29T05:47:13.540Z,100515.84
2023-04-29T05:49:40.344Z,100519.69
2023-04-29T05:52:07.198Z,100517.91
2023-04-29T05:54:39.376Z,100524.19
2023-04-29T05:57:06.618Z,100528.25
2023-04-29T05:59:33.698Z,100527.03
2023-04-29T06:02:04.145Z,100526.72
2023-04-29T06:04:30.783Z,100525.13
2023-04-29T06:07:09.209Z,100527.41
2023-04-29T06:09:48.394Z,100533.56
2023-04-29T06:12:14.881Z,100533.81
2023-04-29T06:14:43.351Z,100544.09
2023-04-29T06:17:11.344Z,100547.06
2023-04-29T06:19:38.106Z,100544.50
2023-04-29T06:22:04.560Z,100548.66
2023-04-29T06:24:31.923Z,100549.56
2023-04-29T06:26:58.523Z,100557.66
2023-04-29T06:29:26.225Z,100560.03
2023-04-29T06:31:53.131Z,100557.16
2023-04-29T06:34:19.912Z,100570.00
2023-04-29T06:37:09.226Z,100574.09
2023-04-29T06:39:59.674Z,100583.19
2023-04-29T06:42:45.309Z,100581.44
2023-04-29T06:45:31.776Z,100584.84
2023-04-29T06:48:04.523Z,100589.63
2023-04-29T06:50:49.790Z,100595.41
2023-04-29T06:53:16.207Z,100600.34
2023-04-29T06:55:42.660Z,100605.13
2023-04-29T06:58:09.079Z,100606.34
2023-04-29T07:00:35.710Z,100615.72
2023-04-29T07:03:02.660Z,100608.16
2023-04-29T07:05:29.242Z,100616.13
2023-04-29T07:07:55.680Z,100613.09
2023-04-29T07:10:22.121Z,100616.94
2023-04-29T07:12:48.549Z,100623.78
2023-04-29T07:15:15.285Z,100628.00
2023-04-29T07:17:41.768Z,100634.97
2023-04-29T07:20:08.873Z,100635.19
2023-04-29T07:22:35.932Z,100638.09
2023-04-29T07:25:02.542Z,100640.03
2023-04-29T07:27:29.549Z,100648.09
2023-04-29T07:29:56.835Z,100645.91
2023-04-29T07:32:23.347Z,100647.34
2023-04-29T07:34:49.920Z,100653.19
2023-04-29T07:37:16.665Z,100658.31
2023-04-29T07:39:43.076Z,100667.59
2023-04-29T07:42:10.148Z,100665.88
2023-04-29T07:44:36.602Z,100672.53
2023-04-29T07:47:03.023Z,100676.75
2023-04-29T07:49:29.454Z,100682.78
2023-04-29T07:51:55.981Z,100688.88
2023-04-29T07:54:22.552Z,100692.22
2023-04-29T07:56:49.172Z,100688.75
2023-04-29T07:59:15.782Z,100698.06
2023-04-29T08:01:42.557Z,100698.78
2023-04-29T08:04:09.165Z,100707.16
2023-04-29T08:06:45.455Z,100717.94
2023-04-29T08:09:12.244Z,100710.66
2023-04-29T08:11:43.150Z,100722.91
2023-04-29T08:14:12.432Z,100733.00
2023-04-29T08:16:39.251Z,100733.28
2023-04-29T08:19:05.746Z,100734.22
2023-04-29T08:21:32.318Z,100737.00
2023-04-29T08:23:58.739Z,100745.34
2023-04-29T08:26:25.416Z,100746.56
2023-04-29T08:28:51.851Z,100751.53
2023-04-29T08:31:20.121Z,100752.72
2023-04-29T08:33:46.606Z,100764.09
2023-04-29T08:36:13.032Z,100767.28
2023-04-29T08:38:39.660Z,100758.34
2023-04-29T08:41:09.672Z,100772.66
2023-04-29T08:43:42.567Z,100766.56
2023-04-29T08:46:10.036Z,100776.72
2023-04-29T08:48:37.789Z,100782.34
2023-04-29T08:51:04.566Z,100794.16
2023-04-29T08:53:31.089Z,100796.66
2023-04-29T08:56:01.975Z,100796.84
2023-04-29T08:58:30.074Z,100805.72
2023-04-29T09:00:57.041Z,100806.31
2023-04-29T09:04:10.175Z,100813.53
2023-04-29T09:06:36.652Z,100820.13
2023-04-29T09:09:03.770Z,100814.25
2023-04-29T09:11:30.933Z,100825.72
2023-04-29T09:14:04.481Z,100829.34
2023-04-29T09:16:31.112Z,100821.78
2023-04-29T09:18:57.604Z,100830.44
2023-04-29T09:21:28.932Z,100841.56
2023-04-29T09:23:57.933Z,100843.22
2023-04-29T09:26:25.454Z,100848.94
2023-04-29T09:29:07.844Z,100854.47
2023-04-29T09:31:34.314Z,100860.34
2023-04-29T09:34:00.833Z,100854.59
2023-04-29T09:36:46.847Z,100865.09
2023-04-29T09:39:16.543Z,100867.31
2023-04-29T09:42:02.664Z,100875.97
2023-04-29T09:44:33.936Z,100874.06
2023-04-29T09:47:06.628Z,100890.09
2023-04-29T09:49:39.745Z,100886.38
2023-04-29T09:52:11.612Z,100889.13
2023-04-29T09:54:40.758Z,100894.50
2023-04-29T09:57:09.299Z,100899.50
2023-04-29T09:59:37.791Z,100897.03
2023-04-29T10:02:15.546Z,100900.38
2023-04-29T10:04:45.092Z,100902.75
2023-04-29T10:07:16.110Z,100912.53
2023-04-29T10:09:44.063Z,100912.84
2023-04-29T10:12:11.037Z,100920.44
2023-04-29T10:14:45.446Z,100911.59
2023-04-29T10:17:18.340Z,100917.25
2023-04-29T10:19:54.256Z,100927.66
2023-04-29T10:22:36.181Z,100927.88
2023-04-29T10:25:05.930Z,100928.16
2023-04-29T10:27:34.914Z,100930.97
2023-04-29T10:30:04.911Z,100934.03
2023-04-29T10:32:49.303Z,100935.16
2023-04-29T10:35:23.235Z,100942.44
2023-04-29T10:37:50.540Z,100950.28
2023-04-29T10:40:18.403Z,100955.69
2023-04-29T10:42:49.952Z,100955.31
2023-04-29T10:45:27.602Z,100952.84
2023-04-29T10:48:05.343Z,100957.78
2023-04-29T10:50:33.398Z,100958.91
2023-04-29T10:53:04.682Z,100961.41
2023-04-29T10:55:31.831Z,100959.44
2023-04-29T10:57:58.307Z,100961.19
2023-04-29T11:00:29.242Z,100967.59
2023-04-29T11:02:59.542Z,100961.72
2023-04-29T11:05:37.129Z,100966.41
2023-04-29T11:08:23.112Z,100974.72
2023-04-29T11:10:54.052Z,100975.28
2023-04-29T11:13:31.204Z,100978.59
2023-04-29T11:16:11.860Z,100982.47
2023-04-29T11:19:09.946Z,100984.41
2023-04-29T11:21:37.525Z,100984.22
2023-04-29T11:24:06.496Z,100990.69
2023-04-29T11:26:36.652Z,100993.56
2023-04-29T11:29:04.745Z,100992.81
2023-04-29T11:31:32.347Z,100998.34
2023-04-29T11:33:59.803Z,100985.25
2023-04-29T11:36:27.456Z,100996.69
2023-04-29T11:38:54.053Z,101004.69
2023-04-29T11:41:21.911Z,101002.31
2023-04-29T11:43:56.710Z,101006.16
2023-04-29T11:46:23.290Z,100999.00
2023-04-29T11:48:50.325Z,101014.00
2023-04-29T11:51:18.893Z,101006.94
2023-04-29T11:53:45.558Z,101007.44
2023-04-29T11:56:12.352Z,101019.84
2023-04-29T11:58:39.289Z,101029.44
2023-04-29T12:01:05.923Z,101022.75
2023-04-29T12:03:33.976Z,101029.78
2023-04-29T12:06:01.939Z,101036.22
2023-04-29T12:08:29.700Z,101034.03
2023-04-29T12:10:58.576Z,101033.97
2023-04-29T12:13:28.183Z,101043.03
2023-04-29T12:15:56.168Z,101038.03
2023-04-29T12:18:23.448Z,101039.03
2023-04-29T12:20:51.477Z,101046.44
2023-04-29T12:23:19.892Z,101049.16
2023-04-29T12:25:54.196Z,101049.28
2023-04-29T12:28:21.107Z,101049.06
2023-04-29T12:30:48.897Z,101050.22
2023-04-29T12:33:29.427Z,101058.03
2023-04-29T12:35:57.841Z,101058.53
2023-04-29T12:38:29.008Z,101056.22
2023-04-29T12:41:01.274Z,101055.56
2023-04-29T12:43:34.053Z,101050.78
2023-04-29T12:46:04.140Z,101062.66
2023-04-29T12:48:33.527Z,101056.47
2023-04-29T12:51:01.375Z,101066.75
2023-04-29T12:53:29.933Z,101063.03
2023-04-29T12:55:56.820Z,101068.59
2023-04-29T12:58:24.011Z,101071.81
2023-04-29T13:00:50.483Z,101068.59
2023-04-29T13:03:18.338Z,101069.22
2023-04-29T13:05:48.513Z,101071.06
2023-04-29T13:08:15.335Z,101067.34
2023-04-29T13:10:42.821Z,101072.69
2023-04-29T13:13:11.842Z,101068.94
2023-04-29T13:15:39.206Z,101071.66
2023-04-29T13:18:05.925Z,101077.22
2023-04-29T13:20:40.952Z,101078.59
2023-04-29T13:23:08.478Z,101075.72
2023-04-29T13:25:34.953Z,101088.75
2023-04-29T13:28:01.448Z,101083.47
2023-04-29T13:30:27.861Z,101093.56
2023-04-29T13:32:57.454Z,101086.84
2023-04-29T13:35:29.505Z,101074.97
2023-04-29T13:37:56.455Z,101082.31
2023-04-29T13:40:22.890Z,101078.88
2023-04-29T13:42:50.753Z,101086.78
2023-04-29T13:45:28.600Z,101083.28
2023-04-29T13:48:07.565Z,101086.88
2023-04-29T13:53:41.302Z,101084.81
2023-04-29T13:56:34.717Z,101075.59
2023-04-29T14:01:48.107Z,101088.53
2023-04-29T14:04:03.206Z,101086.25
2023-04-29T14:06:32.425Z,101087.97
2023-04-29T14:09:00.536Z,101091.34
2023-04-29T14:11:28.646Z,101096.06
2023-04-29T14:13:55.063Z,101094.69
2023-04-29T14:16:21.681Z,101094.47
2023-04-29T14:18:48.071Z,101102.84
2023-04-29T14:21:14.552Z,101108.63
2023-04-29T14:23:41.473Z,101105.41
2023-04-29T14:26:26.520Z,101106.38
2023-04-29T14:28:57.987Z,101107.06
2023-04-29T14:31:28.817Z,101110.59
2023-04-29T14:33:55.995Z,101114.34
2023-04-29T14:36:22.594Z,101121.88
2023-04-29T14:38:49.242Z,101122.91
2023-04-29T14:41:15.926Z,101123.03
2023-04-29T14:43:42.715Z,101123.75
2023-04-29T14:46:09.370Z,101125.19
2023-04-29T14:48:36.022Z,101131.78
2023-04-29T14:51:02.447Z,101126.16
2023-04-29T14:53:28.867Z,101127.13
2023-04-29T14:55:55.335Z,101122.81
2023-04-29T14:58:21.752Z,101126.13
2023-04-29T15:00:49.256Z,101132.84
2023-04-29T15:03:22.020Z,101128.44
2023-04-29T15:05:51.973Z,101123.91
2023-04-29T15:08:19.476Z,101131.63
2023-04-29T15:10:50.064Z,101129.34
2023-04-29T15:13:16.586Z,101130.16
2023-04-29T15:15:43.011Z,101128.69
2023-04-29T15:18:09.569Z,101129.84
2023-04-29T15:20:37.578Z,101130.16
2023-04-29T15:23:05.456Z,101130.44
2023-04-29T15:25:36.241Z,101133.78
2023-04-29T15:28:05.723Z,101132.03
2023-04-29T15:30:32.391Z,101132.53
2023-04-29T15:32:58.865Z,101130.56
2023-04-29T15:35:25.353Z,101130.66
2023-04-29T15:37:51.746Z,101129.50
2023-04-29T15:40:18.227Z,101141.09
2023-04-29T15:42:44.640Z,101136.19
2023-04-29T15:45:11.609Z,101139.44
2023-04-29T15:47:38.210Z,101139.34
2023-04-29T15:50:05.116Z,101144.91
2023-04-29T15:52:31.506Z,101152.75
2023-04-29T15:54:58.366Z,101148.34
2023-04-29T15:57:25.829Z,101155.03
2023-04-29T15:59:52.483Z,101162.97
2023-04-29T16:02:20.399Z,101161.72
2023-04-29T16:04:47.197Z,101170.75
2023-04-29T16:07:13.654Z,101171.94
2023-04-29T16:09:40.199Z,101173.69
2023-04-29T16:12:06.755Z,101173.91
2023-04-29T16:14:33.207Z,101177.47
2023-04-29T16:17:00.471Z,101183.75
2023-04-29T16:19:27.010Z,101182.59
2023-04-29T16:21:53.433Z,101178.31
2023-04-29T16:24:19.846Z,101183.41
2023-04-29T16:26:48.013Z,101182.38
2023-04-29T16:29:14.482Z,101180.41
2023-04-29T16:31:40.936Z,101182.25
2023-04-29T16:34:07.372Z,101190.63
2023-04-29T16:36:33.785Z,101185.81
2023-04-29T16:39:00.206Z,101191.59
2023-04-29T16:41:26.632Z,101192.88
2023-04-29T16:43:53.988Z,101188.81
2023-04-29T16:46:20.492Z,101190.47
2023-04-29T16:48:47.067Z,101185.25
2023-04-29T16:51:13.457Z,101194.25
2023-04-29T16:53:39.861Z,101194.28
2023-04-29T16:56:06.273Z,101191.44
2023-04-29T16:58:32.694Z,101201.66
2023-04-29T17:00:59.280Z,101204.91
2023-04-29T17:03:25.833Z,101206.16
2023-04-29T17:05:52.613Z,101209.44
2023-04-29T17:08:19.087Z,101206.84
2023-04-29T17:10:45.542Z,101215.88
2023-04-29T17:13:12.117Z,101218.84
2023-04-29T17:15:38.530Z,101216.72
2023-04-29T17:18:05.016Z,101216.56
2023-04-29T17:20:31.622Z,101220.81
2023-04-29T17:22:58.075Z,101230.25
2023-04-29T17:25:24.480Z,101234.78
2023-04-29T17:27:50.936Z,101229.13
2023-04-29T17:30:17.346Z,101241.03
2023-04-29T17:32:44.458Z,101239.66
2023-04-29T17:35:11.579Z,101241.84
2023-04-29T17:37:38.229Z,101250.00
2023-04-29T17:40:05.206Z,101242.97
2023-04-29T17:42:31.604Z,101246.66
2023-04-29T17:44:58.007Z,101247.91
2023-04-29T17:47:24.464Z,101257.13
2023-04-29T17:49:51.859Z,101259.56
2023-04-29T17:52:21.254Z,101259.56
2023-04-29T17:54:48.608Z,101264.94
2023-04-29T17:57:15.065Z,101265.47
2023-04-29T17:59:41.554Z,101272.66
2023-04-29T18:02:07.944Z,101262.59
2023-04-29T18:04:34.466Z,101270.72
2023-04-29T18:07:01.704Z,101273.56
2023-04-29T18:09:28.175Z,101271.09
2023-04-29T18:11:54.589Z,101271.22
2023-04-29T18:14:21.392Z,101276.50
2023-04-29T18:16:47.861Z,101281.59
2023-04-29T18:19:14.311Z,101286.91
2023-04-29T18:21:40.734Z,101278.84
2023-04-29T18:24:07.141Z,101278.28
2023-04-29T18:26:33.725Z,101292.13
2023-04-29T18:29:00.150Z,101293.88
2023-04-29T18:31:26.673Z,101295.31
2023-04-29T18:33:53.114Z,101302.31
2023-04-29T18:36:21.287Z,101300.19
2023-04-29T18:38:47.785Z,101302.63
2023-04-29T18:41:14.435Z,101304.69
2023-04-29T18:43:41.257Z,101314.00
2023-04-29T18:46:08.008Z,101313.09
2023-04-29T18:48:35.972Z,101323.81
2023-04-29T18:51:04.326Z,101321.53
2023-04-29T18:53:31.740Z,101325.78
2023-04-29T18:55:58.198Z,101329.50
2023-04-29T18:58:26.680Z,101334.03
2023-04-29T19:00:53.612Z,101325.03
2023-04-29T19:03:20.542Z,101339.09
2023-04-29T19:05:48.090Z,101343.94
2023-04-29T19:08:16.365Z,101350.19
2023-04-29T19:10:44.036Z,101348.50
2023-04-29T19:13:11.134Z,101347.47
2023-04-29T19:15:37.656Z,101361.56
2023-04-29T19:18:04.919Z,101359.38
2023-04-29T19:20:31.909Z,101365.06
2023-04-29T19:22:58.351Z,101363.69
2023-04-29T19:25:26.221Z,101369.88
2023-04-29T19:27:53.117Z,101375.00
2023-04-29T19:30:19.695Z,101381.22
2023-04-29T19:32:46.616Z,101378.16
2023-04-29T19:35:13.212Z,101380.09
2023-04-29T19:37:40.319Z,101384.03
2023-04-29T19:40:10.371Z,101390.81
2023-04-29T19:42:37.419Z,101387.72
2023-04-29T19:45:08.155Z,101386.59
2023-04-29T19:47:34.843Z,101389.16
2023-04-29T19:50:02.003Z,101401.53
2023-04-29T19:52:29.679Z,101396.50
2023-04-29T19:54:56.328Z,101401.84
2023-04-29T19:57:22.782Z,101395.09
2023-04-29T19:59:49.177Z,101404.91
2023-04-29T20:02:15.752Z,101394.25
2023-04-29T20:04:42.205Z,101408.03
2023-04-29T20:07:08.608Z,101402.13
2023-04-29T20:09:35.201Z,101404.94
2023-04-29T20:12:02.732Z,101408.31
2023-04-29T20:14:30.186Z,101408.31
2023-04-29T20:16:59.674Z,101410.28
2023-04-29T20:19:26.931Z,101413.63
2023-04-29T20:21:53.685Z,101421.47
2023-04-29T20:24:20.149Z,101425.44
2023-04-29T20:26:46.589Z,101420.91
2023-04-29T20:29:13.033Z,101421.78
2023-04-29T20:31:39.480Z,101427.63
2023-04-29T20:34:05.992Z,101428.16
2023-04-29T20:36:32.433Z,101427.91
2023-04-29T20:38:58.851Z,101436.56
2023-04-29T20:41:27.923Z,101429.84
2023-04-29T20:43:55.068Z,101437.63
2023-04-29T20:46:23.563Z,101437.13
2023-04-29T20:48:51.720Z,101442.94
2023-04-29T20:51:18.157Z,101443.78
2023-04-29T20:53:44.624Z,101446.03
2023-04-29T20:56:11.111Z,101447.44
2023-04-29T20:58:37.557Z,101440.41
2023-04-29T21:01:04.039Z,101446.03
2023-04-29T21:03:30.533Z,101447.97
2023-04-29T21:05:57.110Z,101447.09
2023-04-29T21:08:23.550Z,101461.38
2023-04-29T21:10:49.967Z,101460.78
2023-04-29T21:13:17.679Z,101457.72
2023-04-29T21:15:45.850Z,101467.78
2023-04-29T21:18:12.723Z,101480.38
2023-04-29T21:20:39.217Z,101473.34
2023-04-29T21:23:05.681Z,101481.22
2023-04-29T21:25:32.151Z,101484.75
2023-04-29T21:27:58.589Z,101481.16
2023-04-29T21:30:25.909Z,101488.75
2023-04-29T21:32:53.222Z,101492.31
2023-04-29T21:35:19.728Z,101490.94
2023-04-29T21:37:47.086Z,101488.13
2023-04-29T21:40:14.374Z,101488.44
2023-04-29T21:42:43.516Z,101487.25
2023-04-29T21:45:12.801Z,101496.53
2023-04-29T21:47:39.492Z,101498.75
2023-04-29T21:50:07.702Z,101490.66
2023-04-29T21:52:35.153Z,101497.38
2023-04-29T21:55:03.423Z,101507.16
2023-04-29T21:57:42.831Z,101506.59
2023-04-29T22:00:20.645Z,101506.28
2023-04-29T22:02:47.183Z,101508.47
2023-04-29T22:05:13.622Z,101512.03
2023-04-29T22:07:40.046Z,101522.00
2023-04-29T22:10:07.046Z,101519.00
2023-04-29T22:12:33.465Z,101530.25
2023-04-29T22:14:59.874Z,101531.81
2023-04-29T22:17:26.306Z,101530.69
2023-04-29T22:19:53.007Z,101541.50
2023-04-29T22:22:19.642Z,101546.00
2023-04-29T22:24:46.062Z,101554.00
2023-04-29T22:27:12.474Z,101550.66
2023-04-29T22:29:39.371Z,101554.66
2023-04-29T22:32:05.922Z,101556.78
2023-04-29T22:34:32.375Z,101566.03
2023-04-29T22:36:58.776Z,101560.97
2023-04-29T22:39:25.258Z,101567.28
2023-04-29T22:41:51.679Z,101573.41
2023-04-29T22:44:18.082Z,101564.47
2023-04-29T22:46:44.541Z,101573.81
2023-04-29T22:49:10.967Z,101574.63
2023-04-29T22:51:37.452Z,101576.00
2023-04-29T22:54:03.926Z,101577.34
2023-04-29T22:56:30.455Z,101579.31
2023-04-29T22:58:56.900Z,101583.72
2023-04-29T23:01:23.351Z,101589.31
2023-04-29T23:03:49.778Z,101595.75
2023-04-29T23:06:16.298Z,101595.94
2023-04-29T23:08:44.483Z,101599.78
2023-04-29T23:11:12.049Z,101601.53
2023-04-29T23:13:39.243Z,101592.44
2023-04-29T23:16:07.072Z,101598.88
2023-04-29T23:18:34.494Z,101594.97
2023-04-29T23:21:00.896Z,101600.81
2023-04-29T23:23:27.293Z,101599.38
2023-04-29T23:25:53.851Z,101593.53
2023-04-29T23:28:20.887Z,101603.78
2023-04-29T23:30:48.102Z,101605.50
2023-04-29T23:33:14.649Z,101608.16
2023-04-29T23:35:41.039Z,101613.75
2023-04-29T23:38:07.598Z,101618.66
2023-04-29T23:40:34.149Z,101615.22
2023-04-29T23:43:00.629Z,101612.94
2023-04-29T23:45:27.059Z,101612.38
2023-04-29T23:47:53.518Z,101617.56
2023-04-29T23:50:19.954Z,101616.59
2023-04-29T23:52:46.389Z,101620.59
2023-04-29T23:55:12.786Z,101612.06
2023-04-29T23:57:39.202Z,101620.28
